Time;durP1;ratioP1;P1;durP2;ratioP2;P2;SDS_P1;SDS_P2;PMS_P1;PMS_P2;Temp;Humidity;BMP_temperature;BMP_pressure;BME280_temperature;BME280_humidity;BME280_pressure;Samples;Min_cycle;Max_cycle;Signal;HPM_P1;HPM_P2
2023/07/01 00:00:54;;;;;;;10.18;5.70;;;;;;;;;;5053066;28;20128;-75
2023/07/01 00:03:23;;;;;;;10.73;5.22;;;;;;;;;;5045995;28;20088;-74
2023/07/01 00:05:50;;;;;;;6.97;4.88;;;;;;;;;;5053591;28;20057;-75
2023/07/01 00:08:16;;;;;;;6.88;4.45;;;;;;;;;;5057519;28;20454;-74
2023/07/01 00:10:42;;;;;;;5.70;4.25;;;;;;;;;;5048972;28;20049;-75
2023/07/01 00:13:08;;;;;;;6.75;4.10;;;;;;;;;;5053213;28;20493;-74
2023/07/01 00:15:34;;;;;;;5.13;3.38;;;;;;;;;;5050146;28;20060;-75
2023/07/01 00:18:00;;;;;;;5.47;3.53;;;;;;;;;;5057310;28;20044;-76
2023/07/01 00:20:26;;;;;;;5.20;3.50;;;;;;;;;;5058130;28;20049;-75
2023/07/01 00:22:53;;;;;;;9.48;3.78;;;;;;;;;;5054192;28;20106;-75
2023/07/01 00:25:19;;;;;;;5.18;3.33;;;;;;;;;;5053992;28;20440;-75
2023/07/01 00:27:45;;;;;;;5.47;4.13;;;;;;;;;;5048573;28;20049;-74
2023/07/01 00:30:11;;;;;;;6.90;4.00;;;;;;;;;;5048685;28;20460;-75
2023/07/01 00:32:38;;;;;;;7.30;3.70;;;;;;;;;;5051833;28;20041;-74
2023/07/01 00:35:04;;;;;;;7.50;4.55;;;;;;;;;;5056853;28;20048;-74
2023/07/01 00:37:30;;;;;;;6.88;4.40;;;;;;;;;;5053873;28;20079;-74
2023/07/01 00:39:59;;;;;;;10.48;4.40;;;;;;;;;;5052945;28;20160;-74
2023/07/01 00:42:25;;;;;;;6.22;3.70;;;;;;;;;;5048440;28;20474;-74
2023/07/01 00:44:51;;;;;;;7.53;3.85;;;;;;;;;;5048218;28;20045;-74
2023/07/01 00:47:17;;;;;;;4.78;3.38;;;;;;;;;;5048097;28;20045;-74
2023/07/01 00:49:43;;;;;;;4.13;3.28;;;;;;;;;;5050649;28;20071;-75
2023/07/01 00:52:09;;;;;;;4.22;3.28;;;;;;;;;;5048982;28;20041;-74
2023/07/01 00:54:36;;;;;;;3.38;3.00;;;;;;;;;;5037531;28;20477;-74
2023/07/01 00:57:03;;;;;;;3.20;2.90;;;;;;;;;;5038009;28;20127;-75
2023/07/01 00:59:32;;;;;;;5.90;4.43;;;;;;;;;;5042074;28;20045;-74
2023/07/01 01:02:00;;;;;;;6.53;3.10;;;;;;;;;;5042064;28;20491;-74
2023/07/01 01:04:29;;;;;;;5.00;3.30;;;;;;;;;;5054377;28;20064;-74
2023/07/01 01:07:08;;;;;;;4.25;3.03;;;;;;;;;;5053137;28;20184;-75
2023/07/01 01:09:38;;;;;;;3.03;2.72;;;;;;;;;;5038632;28;20129;-74
2023/07/01 01:12:07;;;;;;;3.70;2.70;;;;;;;;;;5059697;28;20480;-74
2023/07/01 01:14:33;;;;;;;2.83;2.53;;;;;;;;;;5057483;28;20041;-74
2023/07/01 01:17:04;;;;;;;4.47;3.08;;;;;;;;;;5046003;28;20049;-74
2023/07/01 01:19:36;;;;;;;3.38;2.72;;;;;;;;;;5044299;28;20068;-74
2023/07/01 01:22:17;;;;;;;4.03;2.30;;;;;;;;;;5042673;28;20052;-74
2023/07/01 01:24:47;;;;;;;3.08;2.50;;;;;;;;;;5050345;28;20099;-75
2023/07/01 01:27:15;;;;;;;3.92;3.05;;;;;;;;;;5032966;28;20068;-74
2023/07/01 01:29:41;;;;;;;3.25;2.78;;;;;;;;;;5059681;28;20090;-74
2023/07/01 01:32:08;;;;;;;6.78;2.58;;;;;;;;;;5071050;28;20048;-74
2023/07/01 01:34:34;;;;;;;4.65;2.75;;;;;;;;;;5051470;28;20133;-74
2023/07/01 01:37:04;;;;;;;6.43;2.78;;;;;;;;;;5043465;28;20036;-74
2023/07/01 01:39:32;;;;;;;5.75;2.80;;;;;;;;;;5043937;28;20045;-74
2023/07/01 01:42:16;;;;;;;4.43;2.97;;;;;;;;;;5042638;28;20049;-74
2023/07/01 01:44:47;;;;;;;4.28;2.85;;;;;;;;;;5044583;28;20106;-73
2023/07/01 01:47:19;;;;;;;5.22;2.83;;;;;;;;;;5057246;28;20110;-74
2023/07/01 01:49:46;;;;;;;5.32;3.40;;;;;;;;;;5053738;28;20049;-74
2023/07/01 01:52:15;;;;;;;6.05;3.08;;;;;;;;;;5052457;28;20043;-73
2023/07/01 01:54:41;;;;;;;6.28;3.25;;;;;;;;;;5050290;28;20056;-74
2023/07/01 01:57:07;;;;;;;3.83;2.33;;;;;;;;;;5057276;28;20044;-73
2023/07/01 01:59:36;;;;;;;3.90;2.30;;;;;;;;;;5066826;28;20044;-73
2023/07/01 02:02:02;;;;;;;3.28;2.40;;;;;;;;;;5058779;28;20431;-74
2023/07/01 02:04:31;;;;;;;4.10;3.05;;;;;;;;;;5044194;28;20081;-74
2023/07/01 02:06:57;;;;;;;4.35;2.65;;;;;;;;;;5046463;28;20041;-75
2023/07/01 02:09:23;;;;;;;4.00;2.97;;;;;;;;;;5048109;28;20045;-74
2023/07/01 02:11:49;;;;;;;3.50;2.90;;;;;;;;;;5044073;28;20136;-74
2023/07/01 02:14:15;;;;;;;2.85;2.50;;;;;;;;;;5058047;28;20041;-74
2023/07/01 02:16:41;;;;;;;5.35;2.60;;;;;;;;;;5049390;28;20045;-73
2023/07/01 02:19:07;;;;;;;3.17;2.88;;;;;;;;;;5042966;28;20070;-73
2023/07/01 02:21:34;;;;;;;3.97;2.80;;;;;;;;;;5041601;28;20466;-74
2023/07/01 02:24:00;;;;;;;3.60;2.63;;;;;;;;;;5042861;28;20088;-73
2023/07/01 02:26:26;;;;;;;4.97;3.10;;;;;;;;;;5043509;28;20099;-74
2023/07/01 02:28:52;;;;;;;3.78;2.75;;;;;;;;;;5042282;28;20049;-73
2023/07/01 02:31:18;;;;;;;5.28;3.03;;;;;;;;;;5041298;28;20049;-74
2023/07/01 02:33:45;;;;;;;3.85;2.97;;;;;;;;;;5041378;28;20076;-74
2023/07/01 02:36:11;;;;;;;3.20;2.92;;;;;;;;;;5044404;28;20132;-73
2023/07/01 02:38:37;;;;;;;4.13;2.78;;;;;;;;;;5040742;28;20385;-73
2023/07/01 02:41:03;;;;;;;6.63;2.60;;;;;;;;;;5042344;28;20485;-73
2023/07/01 02:43:29;;;;;;;4.40;3.15;;;;;;;;;;5042637;28;20072;-74
2023/07/01 02:45:55;;;;;;;2.38;2.17;;;;;;;;;;5042009;28;20071;-74
2023/07/01 02:48:21;;;;;;;3.85;2.80;;;;;;;;;;5043002;28;20041;-73
2023/07/01 02:50:47;;;;;;;3.45;2.10;;;;;;;;;;5059528;28;20051;-74
2023/07/01 02:53:15;;;;;;;2.70;2.15;;;;;;;;;;5045251;28;20044;-74
2023/07/01 02:55:41;;;;;;;2.75;2.55;;;;;;;;;;5047249;28;20060;-75
2023/07/01 02:58:07;;;;;;;2.40;1.90;;;;;;;;;;5048766;28;20095;-74
2023/07/01 03:00:33;;;;;;;5.97;2.13;;;;;;;;;;5055188;28;20112;-73
2023/07/01 03:03:17;;;;;;;3.08;2.00;;;;;;;;;;5049786;28;20086;-74
2023/07/01 03:05:44;;;;;;;2.13;1.90;;;;;;;;;;5050282;28;20052;-74
2023/07/01 03:08:10;;;;;;;2.40;2.00;;;;;;;;;;5043067;28;20049;-73
2023/07/01 03:10:36;;;;;;;3.60;2.00;;;;;;;;;;5049440;28;20484;-73
2023/07/01 03:13:03;;;;;;;1.85;1.75;;;;;;;;;;5044205;28;20055;-74
2023/07/01 03:15:29;;;;;;;4.65;2.20;;;;;;;;;;5048880;28;20045;-74
2023/07/01 03:17:55;;;;;;;2.85;1.73;;;;;;;;;;5048958;28;20044;-74
2023/07/01 03:20:24;;;;;;;2.00;1.80;;;;;;;;;;5049882;28;20587;-73
2023/07/01 03:22:51;;;;;;;2.00;1.90;;;;;;;;;;5050546;28;20096;-74
2023/07/01 03:25:17;;;;;;;5.30;1.98;;;;;;;;;;5033854;28;20045;-73
2023/07/01 03:27:43;;;;;;;3.65;1.60;;;;;;;;;;5030347;28;20513;-74
2023/07/01 03:30:16;;;;;;;2.00;1.80;;;;;;;;;;5049199;28;20045;-73
2023/07/01 03:32:42;;;;;;;1.73;1.60;;;;;;;;;;5035326;28;20067;-73
2023/07/01 03:35:11;;;;;;;3.63;1.70;;;;;;;;;;5041053;28;20041;-73
2023/07/01 03:37:42;;;;;;;2.42;1.58;;;;;;;;;;5041371;28;20496;-73
2023/07/01 03:40:12;;;;;;;2.42;1.80;;;;;;;;;;5044374;28;20057;-73
2023/07/01 03:42:41;;;;;;;1.70;1.60;;;;;;;;;;5041647;28;20048;-74
2023/07/01 03:45:08;;;;;;;3.53;1.83;;;;;;;;;;5040705;28;20129;-73
2023/07/01 03:47:45;;;;;;;3.63;2.00;;;;;;;;;;5046632;28;20068;-74
2023/07/01 03:50:11;;;;;;;3.13;1.63;;;;;;;;;;5048486;28;20550;-73
2023/07/01 03:52:38;;;;;;;2.85;1.90;;;;;;;;;;5051056;28;20086;-74
2023/07/01 03:55:05;;;;;;;2.22;1.90;;;;;;;;;;5054375;28;20049;-73
2023/07/01 03:57:31;;;;;;;3.63;2.00;;;;;;;;;;5061453;28;20048;-73
2023/07/01 03:59:57;;;;;;;1.80;1.67;;;;;;;;;;5060848;28;20041;-74
2023/07/01 04:02:23;;;;;;;1.40;1.40;;;;;;;;;;5073510;28;20052;-73
2023/07/01 04:04:49;;;;;;;3.88;1.83;;;;;;;;;;5043862;28;20493;-73
2023/07/01 04:07:17;;;;;;;4.78;2.30;;;;;;;;;;5049446;28;20044;-73
2023/07/01 04:09:43;;;;;;;2.83;2.00;;;;;;;;;;5052075;28;20079;-74
2023/07/01 04:12:10;;;;;;;1.95;1.77;;;;;;;;;;5057917;28;20057;-73
2023/07/01 04:14:36;;;;;;;5.10;1.80;;;;;;;;;;5043610;28;20463;-73
2023/07/01 04:17:02;;;;;;;3.80;2.10;;;;;;;;;;5039612;28;20069;-74
2023/07/01 04:19:28;;;;;;;5.57;2.45;;;;;;;;;;5049500;28;20618;-73
2023/07/01 04:21:54;;;;;;;5.22;2.80;;;;;;;;;;5054110;28;20144;-74
2023/07/01 04:24:20;;;;;;;6.70;2.50;;;;;;;;;;5064141;28;20461;-73
2023/07/01 04:26:46;;;;;;;6.18;2.30;;;;;;;;;;5051283;28;20536;-74
2023/07/01 04:29:13;;;;;;;10.88;4.70;;;;;;;;;;5043231;28;20122;-73
2023/07/01 04:31:39;;;;;;;10.07;4.65;;;;;;;;;;5057941;28;20045;-73
2023/07/01 04:34:05;;;;;;;11.95;5.60;;;;;;;;;;5045969;28;20041;-74
2023/07/01 04:36:31;;;;;;;12.15;5.40;;;;;;;;;;5050049;28;20049;-74
2023/07/01 04:38:57;;;;;;;11.80;4.85;;;;;;;;;;5052977;28;20487;-74
2023/07/01 04:41:24;;;;;;;9.07;4.82;;;;;;;;;;5056733;28;20052;-74
2023/07/01 04:43:50;;;;;;;8.68;4.43;;;;;;;;;;5043524;28;20075;-74
2023/07/01 04:46:16;;;;;;;9.77;4.32;;;;;;;;;;5045608;28;20408;-74
2023/07/01 04:48:42;;;;;;;7.53;4.45;;;;;;;;;;5047023;28;20045;-75
2023/07/01 04:51:08;;;;;;;7.60;4.60;;;;;;;;;;5045428;28;20090;-73
2023/07/01 04:53:34;;;;;;;15.90;4.82;;;;;;;;;;5043801;28;20094;-74
2023/07/01 04:56:04;;;;;;;8.55;5.32;;;;;;;;;;5043651;28;20040;-74
2023/07/01 04:58:30;;;;;;;11.70;4.15;;;;;;;;;;5044008;28;20048;-74
2023/07/01 05:00:56;;;;;;;7.43;3.63;;;;;;;;;;5043121;28;20037;-74
2023/07/01 05:03:22;;;;;;;12.88;4.10;;;;;;;;;;5044479;28;20051;-74
2023/07/01 05:05:48;;;;;;;5.10;3.00;;;;;;;;;;5048996;28;20037;-74
2023/07/01 05:08:14;;;;;;;7.43;3.00;;;;;;;;;;5051150;28;20049;-73
2023/07/01 05:10:40;;;;;;;9.32;3.17;;;;;;;;;;5046403;28;20041;-75
2023/07/01 05:13:06;;;;;;;8.20;2.90;;;;;;;;;;5053802;28;20043;-74
2023/07/01 05:15:33;;;;;;;11.85;2.97;;;;;;;;;;5062526;28;20040;-73
2023/07/01 05:17:59;;;;;;;7.60;2.75;;;;;;;;;;5059339;28;20511;-74
2023/07/01 05:20:25;;;;;;;11.43;3.58;;;;;;;;;;5044741;28;20052;-74
2023/07/01 05:22:51;;;;;;;6.30;2.80;;;;;;;;;;5052012;28;20504;-74
2023/07/01 05:25:17;;;;;;;6.75;2.97;;;;;;;;;;5042048;28;20476;-75
2023/07/01 05:27:43;;;;;;;7.55;3.00;;;;;;;;;;5065371;28;20075;-74
2023/07/01 05:30:09;;;;;;;9.05;3.20;;;;;;;;;;5056240;28;20037;-74
2023/07/01 05:32:35;;;;;;;6.00;3.00;;;;;;;;;;5060100;28;20045;-74
2023/07/01 05:35:02;;;;;;;4.93;2.80;;;;;;;;;;5052273;28;20522;-75
2023/07/01 05:37:28;;;;;;;10.50;3.40;;;;;;;;;;5049287;28;20166;-74
2023/07/01 05:39:54;;;;;;;5.07;1.95;;;;;;;;;;5050959;28;20052;-75
2023/07/01 05:42:20;;;;;;;3.47;1.80;;;;;;;;;;5046640;28;20056;-74
2023/07/01 05:44:46;;;;;;;4.70;1.67;;;;;;;;;;5044451;28;20045;-75
2023/07/01 05:47:15;;;;;;;3.28;1.75;;;;;;;;;;5059093;28;20108;-74
2023/07/01 05:49:41;;;;;;;5.38;1.95;;;;;;;;;;5047291;28;20041;-74
2023/07/01 05:52:07;;;;;;;6.00;2.60;;;;;;;;;;5056504;28;20064;-74
2023/07/01 05:54:33;;;;;;;6.40;2.25;;;;;;;;;;5044589;28;20036;-75
2023/07/01 05:56:59;;;;;;;6.07;2.10;;;;;;;;;;5037637;28;20099;-75
2023/07/01 05:59:25;;;;;;;3.17;1.70;;;;;;;;;;5063087;28;20132;-74
2023/07/01 06:01:51;;;;;;;5.03;1.80;;;;;;;;;;5045817;28;20140;-74
2023/07/01 06:04:17;;;;;;;2.33;1.98;;;;;;;;;;5044721;28;20476;-74
2023/07/01 06:06:43;;;;;;;6.10;2.20;;;;;;;;;;5056886;28;20124;-75
2023/07/01 06:09:10;;;;;;;4.35;2.08;;;;;;;;;;5045815;28;20036;-74
2023/07/01 06:11:36;;;;;;;4.10;2.10;;;;;;;;;;5041804;28;20037;-74
2023/07/01 06:14:02;;;;;;;3.67;2.17;;;;;;;;;;5053845;28;20446;-74
2023/07/01 06:16:28;;;;;;;4.28;1.80;;;;;;;;;;5050688;28;20444;-74
2023/07/01 06:18:54;;;;;;;5.63;2.03;;;;;;;;;;5041923;28;20421;-77
2023/07/01 06:21:21;;;;;;;6.28;2.35;;;;;;;;;;5040870;28;20064;-74
2023/07/01 06:23:47;;;;;;;3.85;2.33;;;;;;;;;;5039892;28;20043;-75
2023/07/01 06:26:13;;;;;;;3.35;2.20;;;;;;;;;;5036472;28;20055;-74
2023/07/01 06:28:39;;;;;;;4.13;2.58;;;;;;;;;;5041873;28;20053;-74
2023/07/01 06:31:06;;;;;;;3.95;2.47;;;;;;;;;;5041950;28;20045;-74
2023/07/01 06:33:36;;;;;;;3.80;2.60;;;;;;;;;;5041007;28;20075;-74
2023/07/01 06:36:03;;;;;;;4.72;2.70;;;;;;;;;;5042826;28;20068;-75
2023/07/01 06:38:31;;;;;;;3.30;2.60;;;;;;;;;;5042494;28;20065;-74
2023/07/01 06:40:57;;;;;;;4.30;2.90;;;;;;;;;;5043157;28;20040;-74
2023/07/01 06:43:23;;;;;;;3.28;2.80;;;;;;;;;;5042677;28;20041;-74
2023/07/01 06:45:50;;;;;;;6.10;2.63;;;;;;;;;;5039709;28;20037;-75
2023/07/01 06:48:16;;;;;;;5.80;2.50;;;;;;;;;;5032580;28;20424;-75
2023/07/01 06:50:42;;;;;;;3.55;2.45;;;;;;;;;;5034165;28;20171;-74
2023/07/01 06:53:08;;;;;;;3.10;2.80;;;;;;;;;;5045906;28;20042;-74
2023/07/01 06:55:34;;;;;;;4.32;2.72;;;;;;;;;;5048709;28;20074;-73
2023/07/01 06:58:04;;;;;;;6.97;2.97;;;;;;;;;;5040906;28;20041;-74
2023/07/01 07:00:30;;;;;;;3.40;2.78;;;;;;;;;;5033604;28;20045;-74
2023/07/01 07:02:56;;;;;;;3.17;2.85;;;;;;;;;;5042161;28;20044;-73
2023/07/01 07:05:23;;;;;;;6.93;3.55;;;;;;;;;;5048273;28;20056;-74
2023/07/01 07:07:49;;;;;;;6.82;4.00;;;;;;;;;;5047167;28;20186;-75
2023/07/01 07:10:15;;;;;;;4.38;3.05;;;;;;;;;;5067749;28;20051;-74
2023/07/01 07:12:41;;;;;;;2.38;2.17;;;;;;;;;;5050367;28;20128;-74
2023/07/01 07:15:07;;;;;;;4.38;2.55;;;;;;;;;;5046134;28;20373;-74
2023/07/01 07:17:34;;;;;;;6.95;2.70;;;;;;;;;;5058670;28;20044;-74
2023/07/01 07:20:00;;;;;;;2.90;2.60;;;;;;;;;;5046036;28;20066;-73
2023/07/01 07:22:26;;;;;;;6.30;2.97;;;;;;;;;;5062983;28;20052;-73
2023/07/01 07:24:52;;;;;;;4.10;2.80;;;;;;;;;;5052599;28;20128;-74
2023/07/01 07:27:18;;;;;;;5.65;3.20;;;;;;;;;;5063652;28;20148;-74
2023/07/01 07:29:44;;;;;;;6.13;3.90;;;;;;;;;;5045879;28;20055;-75
2023/07/01 07:32:11;;;;;;;7.35;3.42;;;;;;;;;;5058535;28;20107;-74
2023/07/01 07:34:38;;;;;;;4.65;3.47;;;;;;;;;;5046555;28;20135;-73
2023/07/01 07:37:05;;;;;;;7.30;3.45;;;;;;;;;;5047249;28;20041;-74
2023/07/01 07:39:31;;;;;;;4.90;3.28;;;;;;;;;;5049156;28;20068;-74
2023/07/01 07:41:57;;;;;;;4.63;3.70;;;;;;;;;;5045012;28;20043;-74
2023/07/01 07:44:23;;;;;;;5.50;3.63;;;;;;;;;;5058268;28;20491;-73
2023/07/01 07:46:49;;;;;;;8.00;3.63;;;;;;;;;;5051537;28;20163;-75
2023/07/01 07:49:16;;;;;;;6.05;3.83;;;;;;;;;;5057686;28;20080;-74
2023/07/01 07:51:43;;;;;;;7.95;4.53;;;;;;;;;;5041678;28;20510;-74
2023/07/01 07:54:09;;;;;;;7.22;4.80;;;;;;;;;;5051845;28;20087;-74
2023/07/01 07:56:35;;;;;;;5.05;4.00;;;;;;;;;;5048885;28;20374;-73
2023/07/01 07:59:01;;;;;;;7.30;4.28;;;;;;;;;;5051732;28;20446;-74
2023/07/01 08:01:27;;;;;;;6.03;4.50;;;;;;;;;;5059003;28;20496;-75
2023/07/01 08:03:53;;;;;;;4.82;4.03;;;;;;;;;;5044450;28;20053;-73
2023/07/01 08:06:19;;;;;;;7.32;5.47;;;;;;;;;;5044166;28;20100;-74
2023/07/01 08:08:45;;;;;;;14.32;9.20;;;;;;;;;;5035063;28;20041;-74
2023/07/01 08:11:12;;;;;;;7.57;4.82;;;;;;;;;;5050822;28;20037;-73
2023/07/01 08:13:38;;;;;;;10.35;4.68;;;;;;;;;;5052741;28;20044;-73
2023/07/01 08:16:04;;;;;;;7.05;4.80;;;;;;;;;;5040975;28;20037;-73
2023/07/01 08:18:31;;;;;;;6.70;5.10;;;;;;;;;;5051443;28;20400;-74
2023/07/01 08:20:57;;;;;;;10.45;6.25;;;;;;;;;;5053780;28;20403;-74
2023/07/01 08:23:23;;;;;;;7.90;5.70;;;;;;;;;;5052490;28;20057;-74
2023/07/01 08:25:49;;;;;;;9.25;6.55;;;;;;;;;;5067424;28;20048;-74
2023/07/01 08:28:15;;;;;;;9.60;5.93;;;;;;;;;;5054514;28;20110;-73
2023/07/01 08:30:41;;;;;;;9.32;6.03;;;;;;;;;;5041607;28;20033;-74
2023/07/01 08:33:07;;;;;;;8.73;6.28;;;;;;;;;;5039295;28;20439;-74
2023/07/01 08:35:33;;;;;;;12.60;6.20;;;;;;;;;;5045458;28;20040;-74
2023/07/01 08:37:59;;;;;;;8.07;6.10;;;;;;;;;;5048137;28;20449;-74
2023/07/01 08:40:26;;;;;;;10.23;6.10;;;;;;;;;;5049956;28;20048;-74
2023/07/01 08:42:54;;;;;;;11.93;6.20;;;;;;;;;;5043809;28;20423;-74
2023/07/01 08:45:25;;;;;;;7.88;5.65;;;;;;;;;;5053694;28;20059;-74
2023/07/01 08:47:53;;;;;;;10.38;5.78;;;;;;;;;;5047878;28;20048;-74
2023/07/01 08:50:20;;;;;;;8.73;5.32;;;;;;;;;;5044352;28;20123;-74
2023/07/01 08:52:47;;;;;;;8.48;5.63;;;;;;;;;;5049859;28;20044;-74
2023/07/01 08:55:13;;;;;;;6.38;4.45;;;;;;;;;;5051334;28;20045;-73
2023/07/01 08:57:42;;;;;;;7.18;5.00;;;;;;;;;;5046281;28;20052;-72
2023/07/01 09:00:09;;;;;;;9.15;5.30;;;;;;;;;;5043917;28;20114;-74
2023/07/01 09:02:36;;;;;;;9.55;6.38;;;;;;;;;;5065126;28;20124;-73
2023/07/01 09:05:02;;;;;;;9.30;5.50;;;;;;;;;;5046843;28;20041;-73
2023/07/01 09:07:31;;;;;;;8.07;6.10;;;;;;;;;;5036537;28;20050;-73
2023/07/01 09:09:57;;;;;;;8.00;5.40;;;;;;;;;;5050935;28;20541;-74
2023/07/01 09:12:30;;;;;;;9.77;6.40;;;;;;;;;;5052798;28;20040;-73
2023/07/01 09:15:00;;;;;;;6.75;5.18;;;;;;;;;;5050805;28;20041;-74
2023/07/01 09:17:33;;;;;;;8.80;5.25;;;;;;;;;;5048290;28;20098;-74
2023/07/01 09:20:10;;;;;;;9.48;6.00;;;;;;;;;;5046954;28;20485;-74
2023/07/01 09:22:36;;;;;;;7.20;5.38;;;;;;;;;;5044265;28;20056;-73
2023/07/01 09:25:03;;;;;;;9.32;5.25;;;;;;;;;;5052963;28;20103;-75
2023/07/01 09:27:42;;;;;;;10.63;5.45;;;;;;;;;;5047391;28;20134;-74
2023/07/01 09:30:21;;;;;;;8.10;5.82;;;;;;;;;;5042680;28;20204;-74
2023/07/01 09:32:47;;;;;;;8.63;5.70;;;;;;;;;;5039329;28;20045;-75
2023/07/01 09:35:13;;;;;;;9.13;5.18;;;;;;;;;;5040863;28;20384;-75
2023/07/01 09:37:40;;;;;;;7.80;5.10;;;;;;;;;;5035204;28;20504;-74
2023/07/01 09:40:24;;;;;;;7.03;5.20;;;;;;;;;;5041091;28;21647;-74
2023/07/01 09:42:55;;;;;;;9.07;5.65;;;;;;;;;;5040945;28;20059;-75
2023/07/01 09:45:21;;;;;;;8.63;5.00;;;;;;;;;;5044077;28;20102;-74
2023/07/01 09:47:53;;;;;;;9.20;5.70;;;;;;;;;;5043122;28;20112;-76
2023/07/01 09:50:28;;;;;;;9.07;5.60;;;;;;;;;;5058856;28;20449;-74
2023/07/01 09:52:55;;;;;;;8.85;5.30;;;;;;;;;;5039992;28;20470;-73
2023/07/01 09:55:22;;;;;;;7.00;5.45;;;;;;;;;;5042838;28;20072;-72
2023/07/01 09:57:48;;;;;;;8.90;6.18;;;;;;;;;;5046095;28;20041;-73
2023/07/01 10:00:16;;;;;;;6.07;5.47;;;;;;;;;;5044202;28;20061;-72
2023/07/01 10:02:44;;;;;;;8.93;5.60;;;;;;;;;;5041517;28;20048;-75
2023/07/01 10:05:10;;;;;;;8.43;5.35;;;;;;;;;;5048031;28;20080;-74
2023/07/01 10:07:36;;;;;;;9.60;5.50;;;;;;;;;;5065833;28;20377;-74
2023/07/01 10:10:02;;;;;;;6.47;5.18;;;;;;;;;;5043801;28;20102;-75
2023/07/01 10:12:30;;;;;;;9.57;5.50;;;;;;;;;;5047059;28;20538;-75
2023/07/01 10:14:56;;;;;;;9.73;5.70;;;;;;;;;;5046437;28;20040;-75
2023/07/01 10:17:23;;;;;;;11.02;5.65;;;;;;;;;;5055203;28;20033;-74
2023/07/01 10:19:49;;;;;;;8.88;5.30;;;;;;;;;;5050535;28;20049;-75
2023/07/01 10:22:26;;;;;;;7.55;4.90;;;;;;;;;;5046049;28;20059;-75
2023/07/01 10:24:57;;;;;;;8.20;5.28;;;;;;;;;;5046144;28;20052;-74
2023/07/01 10:27:44;;;;;;;10.20;5.10;;;;;;;;;;5043691;28;20049;-75
2023/07/01 10:30:14;;;;;;;7.22;4.65;;;;;;;;;;5047504;28;20047;-75
2023/07/01 10:32:40;;;;;;;8.82;4.90;;;;;;;;;;5046195;28;20132;-76
2023/07/01 10:35:07;;;;;;;7.13;4.40;;;;;;;;;;5042178;28;20084;-75
2023/07/01 10:37:33;;;;;;;6.65;3.70;;;;;;;;;;5046645;28;20072;-75
2023/07/01 10:40:07;;;;;;;7.82;3.80;;;;;;;;;;5041416;28;20725;-75
2023/07/01 10:42:36;;;;;;;5.35;3.53;;;;;;;;;;5040168;28;20055;-75
2023/07/01 10:45:12;;;;;;;6.28;3.30;;;;;;;;;;5039617;28;20480;-76
2023/07/01 10:47:38;;;;;;;3.78;2.85;;;;;;;;;;5036736;28;20503;-75
2023/07/01 10:50:05;;;;;;;3.60;3.15;;;;;;;;;;5047861;28;20037;-75
2023/07/01 10:52:32;;;;;;;4.45;3.38;;;;;;;;;;5047906;28;20072;-78
2023/07/01 10:55:00;;;;;;;5.18;3.30;;;;;;;;;;5043228;28;20544;-75
2023/07/01 10:57:27;;;;;;;4.95;3.70;;;;;;;;;;5046234;28;20141;-75
2023/07/01 11:00:13;;;;;;;6.00;3.28;;;;;;;;;;5051344;28;20041;-75
2023/07/01 11:02:39;;;;;;;5.20;3.70;;;;;;;;;;5051435;28;20060;-75
2023/07/01 11:05:07;;;;;;;3.60;3.28;;;;;;;;;;5054909;28;20534;-75
2023/07/01 11:07:36;;;;;;;6.50;4.22;;;;;;;;;;5058177;28;20052;-76
2023/07/01 11:10:05;;;;;;;3.47;3.08;;;;;;;;;;5053989;28;20088;-76
2023/07/01 11:12:31;;;;;;;5.40;3.38;;;;;;;;;;5045548;28;20048;-75
2023/07/01 11:14:59;;;;;;;3.90;2.97;;;;;;;;;;5055857;28;20045;-75
2023/07/01 11:17:26;;;;;;;4.47;2.80;;;;;;;;;;5051410;28;20471;-76
2023/07/01 11:19:59;;;;;;;2.95;2.75;;;;;;;;;;5049136;28;20072;-75
2023/07/01 11:22:25;;;;;;;3.20;2.90;;;;;;;;;;5044557;28;20057;-75
2023/07/01 11:24:51;;;;;;;10.10;6.65;;;;;;;;;;5052912;28;20538;-75
2023/07/01 11:27:17;;;;;;;5.32;3.10;;;;;;;;;;5043785;28;20045;-75
2023/07/01 11:29:48;;;;;;;4.20;2.63;;;;;;;;;;5046215;28;20045;-76
2023/07/01 11:32:14;;;;;;;4.82;2.78;;;;;;;;;;5045986;28;20057;-75
2023/07/01 11:34:41;;;;;;;4.57;2.63;;;;;;;;;;5051864;28;20079;-77
2023/07/01 11:37:07;;;;;;;4.97;2.85;;;;;;;;;;5051161;28;20053;-75
2023/07/01 11:39:33;;;;;;;5.28;2.88;;;;;;;;;;5052930;28;20083;-75
2023/07/01 11:42:03;;;;;;;2.92;2.10;;;;;;;;;;5049699;28;20049;-75
2023/07/01 11:44:33;;;;;;;2.38;2.10;;;;;;;;;;5044758;28;20095;-81
2023/07/01 11:46:59;;;;;;;6.15;2.72;;;;;;;;;;5037324;28;20393;-77
2023/07/01 11:49:30;;;;;;;2.60;2.40;;;;;;;;;;5052024;28;20145;-76
2023/07/01 11:52:00;;;;;;;4.90;2.70;;;;;;;;;;5061952;28;20040;-76
2023/07/01 11:54:41;;;;;;;4.18;2.80;;;;;;;;;;5051939;28;20065;-76
2023/07/01 11:57:17;;;;;;;5.28;3.10;;;;;;;;;;5052364;28;20037;-76
2023/07/01 11:59:44;;;;;;;5.35;2.33;;;;;;;;;;5046460;28;20102;-76
2023/07/01 12:02:11;;;;;;;4.25;2.65;;;;;;;;;;5043847;28;20041;-77
2023/07/01 12:04:37;;;;;;;4.90;3.05;;;;;;;;;;5047850;28;20042;-76
2023/07/01 12:07:10;;;;;;;4.05;2.92;;;;;;;;;;5050551;28;20048;-76
2023/07/01 12:09:37;;;;;;;5.40;3.10;;;;;;;;;;5057395;28;20048;-76
2023/07/01 12:12:04;;;;;;;3.45;3.10;;;;;;;;;;5041568;28;20366;-76
2023/07/01 12:14:30;;;;;;;5.65;3.35;;;;;;;;;;5053985;28;20056;-76
2023/07/01 12:16:56;;;;;;;3.88;2.88;;;;;;;;;;5058070;28;20059;-77
2023/07/01 12:19:23;;;;;;;3.85;3.35;;;;;;;;;;5057933;28;20083;-76
2023/07/01 12:21:50;;;;;;;5.95;3.67;;;;;;;;;;5049297;28;20052;-76
2023/07/01 12:24:17;;;;;;;4.38;3.25;;;;;;;;;;5048950;28;20052;-76
2023/07/01 12:26:43;;;;;;;4.82;3.00;;;;;;;;;;5058345;28;20037;-76
2023/07/01 12:29:09;;;;;;;3.72;3.05;;;;;;;;;;5058301;28;20045;-76
2023/07/01 12:31:35;;;;;;;5.03;2.90;;;;;;;;;;5047262;28;20397;-76
2023/07/01 12:34:01;;;;;;;5.07;3.22;;;;;;;;;;5032476;28;20428;-76
2023/07/01 12:36:27;;;;;;;5.45;3.67;;;;;;;;;;5045905;28;20048;-75
2023/07/01 12:38:53;;;;;;;7.25;3.50;;;;;;;;;;5035561;28;20063;-75
2023/07/01 12:41:20;;;;;;;6.35;3.70;;;;;;;;;;5053571;28;20472;-76
2023/07/01 12:43:49;;;;;;;5.38;3.65;;;;;;;;;;5055845;28;20079;-77
2023/07/01 12:46:15;;;;;;;5.88;3.80;;;;;;;;;;5051443;28;20480;-76
2023/07/01 12:48:44;;;;;;;6.22;4.07;;;;;;;;;;5034240;28;20042;-76
2023/07/01 12:51:10;;;;;;;7.38;4.40;;;;;;;;;;5047442;28;20083;-73
2023/07/01 12:53:36;;;;;;;7.10;4.18;;;;;;;;;;5060487;28;20045;-76
2023/07/01 12:56:02;;;;;;;6.00;4.50;;;;;;;;;;5045417;28;20057;-77
2023/07/01 12:58:29;;;;;;;5.43;4.00;;;;;;;;;;5072936;28;20044;-76
2023/07/01 13:00:56;;;;;;;5.68;3.88;;;;;;;;;;5048524;28;20542;-78
2023/07/01 13:03:22;;;;;;;8.55;4.05;;;;;;;;;;5039282;28;20056;-77
2023/07/01 13:05:51;;;;;;;5.38;3.50;;;;;;;;;;5052847;28;20041;-78
2023/07/01 13:08:19;;;;;;;9.80;3.47;;;;;;;;;;5052260;28;20127;-77
2023/07/01 13:10:45;;;;;;;4.50;2.65;;;;;;;;;;5039046;28;20056;-77
2023/07/01 13:13:11;;;;;;;6.53;2.90;;;;;;;;;;5047756;28;20076;-78
2023/07/01 13:15:44;;;;;;;4.82;2.72;;;;;;;;;;5048246;28;20041;-77
2023/07/01 13:18:10;;;;;;;7.57;3.47;;;;;;;;;;5045143;28;20045;-76
2023/07/01 13:20:36;;;;;;;5.70;2.50;;;;;;;;;;5046351;28;20068;-76
2023/07/01 13:23:03;;;;;;;5.38;2.38;;;;;;;;;;5045262;28;20099;-76
2023/07/01 13:25:29;;;;;;;4.88;2.38;;;;;;;;;;5044534;28;20437;-76
2023/07/01 13:27:55;;;;;;;4.95;2.55;;;;;;;;;;5036181;28;20049;-77
2023/07/01 13:30:32;;;;;;;4.63;2.78;;;;;;;;;;5049237;28;20469;-78
2023/07/01 13:32:58;;;;;;;5.82;2.58;;;;;;;;;;5043117;28;20049;-76
2023/07/01 13:35:24;;;;;;;4.85;2.67;;;;;;;;;;5043617;28;20049;-75
2023/07/01 13:37:58;;;;;;;7.50;2.70;;;;;;;;;;5047587;28;20111;-76
2023/07/01 13:40:24;;;;;;;4.93;2.75;;;;;;;;;;5044254;28;20559;-76
2023/07/01 13:42:51;;;;;;;6.53;2.45;;;;;;;;;;5044824;28;20044;-76
2023/07/01 13:45:23;;;;;;;8.23;2.50;;;;;;;;;;5073957;28;20041;-76
2023/07/01 13:47:50;;;;;;;3.53;2.47;;;;;;;;;;5059274;28;20052;-75
2023/07/01 13:50:19;;;;;;;4.43;2.30;;;;;;;;;;5043775;28;20041;-75
2023/07/01 13:52:46;;;;;;;5.80;2.17;;;;;;;;;;5046747;28;20049;-75
2023/07/01 13:55:12;;;;;;;5.35;2.30;;;;;;;;;;5050277;28;20064;-75
2023/07/01 13:57:38;;;;;;;3.67;2.33;;;;;;;;;;5045985;28;20116;-75
2023/07/01 14:00:08;;;;;;;4.75;2.50;;;;;;;;;;5031051;28;20506;-75
2023/07/01 14:02:38;;;;;;;6.30;2.60;;;;;;;;;;5038345;28;20523;-75
2023/07/01 14:05:05;;;;;;;3.13;2.17;;;;;;;;;;5044752;28;20057;-75
2023/07/01 14:07:34;;;;;;;4.07;2.60;;;;;;;;;;5042618;28;20476;-75
2023/07/01 14:10:00;;;;;;;7.43;2.38;;;;;;;;;;5045982;28;20751;-76
2023/07/01 14:12:26;;;;;;;3.40;2.10;;;;;;;;;;5041711;28;20049;-75
2023/07/01 14:14:52;;;;;;;8.32;2.28;;;;;;;;;;5041948;28;20041;-76
2023/07/01 14:17:18;;;;;;;2.17;1.88;;;;;;;;;;5040742;28;20404;-75
2023/07/01 14:19:47;;;;;;;4.25;1.95;;;;;;;;;;5048785;28;20048;-76
2023/07/01 14:22:13;;;;;;;5.20;2.30;;;;;;;;;;5038745;28;20049;-75
2023/07/01 14:24:39;;;;;;;6.82;2.22;;;;;;;;;;5047899;28;20061;-75
2023/07/01 14:27:05;;;;;;;5.60;2.33;;;;;;;;;;5046742;28;20112;-75
2023/07/01 14:29:32;;;;;;;5.32;2.20;;;;;;;;;;5047187;28;20055;-75
2023/07/01 14:31:58;;;;;;;5.97;2.72;;;;;;;;;;5048157;28;20080;-76
2023/07/01 14:34:27;;;;;;;6.88;2.92;;;;;;;;;;5045553;28;20123;-76
2023/07/01 14:36:57;;;;;;;6.10;2.50;;;;;;;;;;5045029;28;20052;-76
2023/07/01 14:39:47;;;;;;;5.28;2.42;;;;;;;;;;5039205;28;20060;-77
2023/07/01 14:42:14;;;;;;;4.80;2.60;;;;;;;;;;5043600;28;20060;-76
2023/07/01 14:44:40;;;;;;;4.25;2.50;;;;;;;;;;5045500;28;20080;-76